createdAt,value
2018-09-26T00:02:28.674Z,99.67
2018-09-26T00:05:32.936Z,99.78
2018-09-26T00:08:37.243Z,100.00
2018-09-26T00:11:41.577Z,99.45
2018-09-26T00:14:45.896Z,99.01
2018-09-26T00:17:50.224Z,99.39
2018-09-26T00:20:54.532Z,99.43
2018-09-26T00:23:58.805Z,99.20
2018-09-26T00:27:03.240Z,99.16
2018-09-26T00:30:07.573Z,99.19
2018-09-26T00:33:11.933Z,99.48
2018-09-26T00:36:16.288Z,99.52
2018-09-26T00:39:20.594Z,99.93
2018-09-26T00:42:24.897Z,100.00
2018-09-26T00:45:29.224Z,99.94
2018-09-26T00:48:33.536Z,99.90
2018-09-26T00:51:37.870Z,99.89
2018-09-26T00:54:43.001Z,100.00
2018-09-26T00:57:47.321Z,99.91
2018-09-26T01:00:51.793Z,99.85
2018-09-26T01:03:56.034Z,99.59
2018-09-26T01:07:00.379Z,99.32
2018-09-26T01:10:04.741Z,99.10
2018-09-26T01:13:09.030Z,99.35
2018-09-26T01:16:13.362Z,99.10
2018-09-26T01:19:17.709Z,98.44
2018-09-26T01:22:22.018Z,98.75
2018-09-26T01:25:26.341Z,98.51
2018-09-26T01:28:30.641Z,99.05
2018-09-26T01:31:34.941Z,99.04
2018-09-26T01:34:39.288Z,99.23
2018-09-26T01:37:43.526Z,98.79
2018-09-26T01:40:47.820Z,99.74
2018-09-26T01:43:52.132Z,99.96
2018-09-26T01:46:56.467Z,99.62
2018-09-26T01:50:00.796Z,100.00
2018-09-26T01:53:06.052Z,100.00
2018-09-26T01:56:10.405Z,99.64
2018-09-26T01:59:14.692Z,100.00
2018-09-26T02:02:18.951Z,99.79
2018-09-26T02:05:23.244Z,99.51
2018-09-26T02:08:27.561Z,99.50
2018-09-26T02:11:31.857Z,99.06
2018-09-26T02:14:36.174Z,98.47
2018-09-26T02:17:40.506Z,97.80
2018-09-26T02:20:44.774Z,97.48
2018-09-26T02:23:49.127Z,97.54
2018-09-26T02:26:53.363Z,97.22
2018-09-26T02:29:57.620Z,97.22
2018-09-26T02:33:01.913Z,95.93
2018-09-26T02:36:06.262Z,96.22
2018-09-26T02:39:10.583Z,95.39
2018-09-26T02:42:14.839Z,93.86
2018-09-26T02:45:22.221Z,94.00
2018-09-26T02:48:31.842Z,93.41
2018-09-26T02:51:37.642Z,92.70
2018-09-26T02:54:41.879Z,92.86
2018-09-26T02:57:46.205Z,92.87
2018-09-26T03:00:50.444Z,92.99
2018-09-26T03:03:54.678Z,92.45
2018-09-26T03:06:59.023Z,92.61
2018-09-26T03:10:03.305Z,91.92
2018-09-26T03:13:07.903Z,92.19
2018-09-26T03:16:12.245Z,92.67
2018-09-26T03:19:16.532Z,92.61
2018-09-26T03:22:20.781Z,92.58
2018-09-26T03:25:25.101Z,92.52
2018-09-26T03:28:29.417Z,92.30
2018-09-26T03:31:33.725Z,93.26
2018-09-26T03:34:38.069Z,92.73
2018-09-26T03:37:42.384Z,93.13
2018-09-26T03:40:46.701Z,92.52
2018-09-26T03:43:51.037Z,91.97
2018-09-26T03:46:55.386Z,92.34
2018-09-26T03:49:59.678Z,92.28
2018-09-26T03:53:04.314Z,92.61
2018-09-26T03:56:08.524Z,92.24
2018-09-26T03:59:12.848Z,92.30
2018-09-26T04:02:17.177Z,91.64
2018-09-26T04:05:21.453Z,91.55
2018-09-26T04:08:25.813Z,91.50
2018-09-26T04:11:30.145Z,91.37
2018-09-26T04:14:34.409Z,91.73
2018-09-26T04:17:38.668Z,91.49
2018-09-26T04:20:42.973Z,91.45
2018-09-26T04:23:47.304Z,91.38
2018-09-26T04:26:51.759Z,91.32
2018-09-26T04:29:55.994Z,91.36
2018-09-26T04:33:00.986Z,90.67
2018-09-26T04:36:05.443Z,90.39
2018-09-26T04:39:11.536Z,90.39
2018-09-26T04:42:15.808Z,90.62
2018-09-26T04:45:20.138Z,90.70
2018-09-26T04:48:24.409Z,91.23
2018-09-26T04:51:28.669Z,90.87
2018-09-26T04:54:32.997Z,91.51
2018-09-26T04:57:37.257Z,90.98
2018-09-26T05:00:41.749Z,91.00
2018-09-26T05:03:46.070Z,91.34
2018-09-26T05:06:50.375Z,91.27
2018-09-26T05:09:54.697Z,91.58
2018-09-26T05:12:59.013Z,91.74
2018-09-26T05:16:03.369Z,91.59
2018-09-26T05:19:08.348Z,91.54
2018-09-26T05:22:12.687Z,91.56
2018-09-26T05:25:17.030Z,91.56
2018-09-26T05:28:21.335Z,91.72
2018-09-26T05:31:26.030Z,91.33
2018-09-26T05:34:30.520Z,91.42
2018-09-26T05:37:34.826Z,91.18
2018-09-26T05:40:39.155Z,90.99
2018-09-26T05:43:43.473Z,91.12
2018-09-26T05:46:47.894Z,90.78
2018-09-26T05:49:52.247Z,90.46
2018-09-26T05:52:56.564Z,90.77
2018-09-26T05:56:00.876Z,90.29
2018-09-26T05:59:05.195Z,91.02
2018-09-26T06:02:09.537Z,91.21
2018-09-26T06:05:13.782Z,91.32
2018-09-26T06:08:18.161Z,91.44
2018-09-26T06:11:23.456Z,91.77
2018-09-26T06:14:27.710Z,92.05
2018-09-26T06:17:32.019Z,91.46
2018-09-26T06:20:36.374Z,91.72
2018-09-26T06:23:40.702Z,92.14
2018-09-26T06:26:45.011Z,91.69
2018-09-26T06:29:49.325Z,92.39
2018-09-26T06:32:53.653Z,92.09
2018-09-26T06:35:57.912Z,91.44
2018-09-26T06:39:02.271Z,91.43
2018-09-26T06:42:06.733Z,91.34
2018-09-26T06:45:11.004Z,91.07
2018-09-26T06:48:15.416Z,90.72
2018-09-26T06:51:19.760Z,90.64
2018-09-26T06:54:24.121Z,90.91
2018-09-26T06:57:28.413Z,91.03
2018-09-26T07:00:32.689Z,90.80
2018-09-26T07:03:36.952Z,90.97
2018-09-26T07:06:41.279Z,91.43
2018-09-26T07:09:45.619Z,91.06
2018-09-26T07:12:49.863Z,90.64
2018-09-26T07:15:54.138Z,90.55
2018-09-26T07:18:58.498Z,90.50
2018-09-26T07:22:02.784Z,90.69
2018-09-26T07:25:07.111Z,90.46
2018-09-26T07:28:11.451Z,89.96
2018-09-26T07:31:15.805Z,91.06
2018-09-26T07:34:24.140Z,90.66
2018-09-26T07:37:28.415Z,90.42
2018-09-26T07:40:32.720Z,90.77
2018-09-26T07:43:37.024Z,90.32
2018-09-26T07:46:41.281Z,90.33
2018-09-26T07:49:45.608Z,90.22
2018-09-26T07:52:49.885Z,90.25
2018-09-26T07:55:54.186Z,89.83
2018-09-26T07:58:58.857Z,89.71
2018-09-26T08:02:03.173Z,90.13
2018-09-26T08:05:07.503Z,90.22
2018-09-26T08:08:12.757Z,89.88
2018-09-26T08:11:17.130Z,90.27
2018-09-26T08:14:21.389Z,90.37
2018-09-26T08:17:25.701Z,89.85
2018-09-26T08:20:30.508Z,90.11
2018-09-26T08:23:34.845Z,90.40
2018-09-26T08:26:39.177Z,90.13
2018-09-26T08:29:43.686Z,90.51
2018-09-26T08:32:47.987Z,90.93
2018-09-26T08:35:52.346Z,90.75
2018-09-26T08:38:56.681Z,90.82
2018-09-26T08:42:01.003Z,90.89
2018-09-26T08:45:05.432Z,91.19
2018-09-26T08:48:09.754Z,89.89
2018-09-26T08:51:14.048Z,89.80
2018-09-26T08:54:18.306Z,90.32
2018-09-26T08:57:22.601Z,90.00
2018-09-26T09:00:33.230Z,89.90
2018-09-26T09:03:37.572Z,90.07
2018-09-26T09:06:41.871Z,90.00
2018-09-26T09:09:46.134Z,90.59
2018-09-26T09:12:50.471Z,90.77
2018-09-26T09:15:54.789Z,90.14
2018-09-26T09:18:59.143Z,90.69
2018-09-26T09:22:03.496Z,91.15
2018-09-26T09:25:07.790Z,90.80
2018-09-26T09:28:12.057Z,90.81
2018-09-26T09:31:16.367Z,90.61
2018-09-26T09:34:20.713Z,90.11
2018-09-26T09:37:25.020Z,90.90
2018-09-26T09:40:29.381Z,90.56
2018-09-26T09:43:33.654Z,90.22
2018-09-26T09:46:37.978Z,90.13
2018-09-26T09:49:42.327Z,90.22
2018-09-26T09:52:46.657Z,90.96
2018-09-26T09:55:52.036Z,90.45
2018-09-26T09:58:56.410Z,90.58
2018-09-26T10:02:00.713Z,90.02
2018-09-26T10:05:05.067Z,90.30
2018-09-26T10:08:09.363Z,89.82
2018-09-26T10:11:13.690Z,90.14
2018-09-26T10:14:18.002Z,89.77
2018-09-26T10:17:22.283Z,90.72
2018-09-26T10:20:26.650Z,90.81
2018-09-26T10:23:30.801Z,89.49
2018-09-26T10:26:35.141Z,90.22
2018-09-26T10:29:39.503Z,90.16
2018-09-26T10:32:43.799Z,89.13
2018-09-26T10:35:48.179Z,89.45
2018-09-26T10:38:52.504Z,89.60
2018-09-26T10:41:56.788Z,90.36
2018-09-26T10:45:01.090Z,90.24
2018-09-26T10:48:05.367Z,89.73
2018-09-26T10:51:10.652Z,88.99
2018-09-26T10:54:15.017Z,89.44
2018-09-26T10:57:19.316Z,89.88
2018-09-26T11:00:23.652Z,89.88
2018-09-26T11:03:27.940Z,90.18
2018-09-26T11:06:32.280Z,89.32
2018-09-26T11:09:37.867Z,89.62
2018-09-26T11:12:42.293Z,90.36
2018-09-26T11:15:46.585Z,90.31
2018-09-26T11:18:50.916Z,90.09
2018-09-26T11:21:55.384Z,90.51
2018-09-26T11:24:59.750Z,91.01
2018-09-26T11:28:04.110Z,92.17
2018-09-26T11:31:09.137Z,92.41
2018-09-26T11:34:13.460Z,91.30
2018-09-26T11:37:17.733Z,91.64
2018-09-26T11:40:22.183Z,91.65
2018-09-26T11:43:26.495Z,91.07
2018-09-26T11:46:30.834Z,92.44
2018-09-26T11:49:35.123Z,92.53
2018-09-26T11:52:39.490Z,93.29
2018-09-26T11:55:43.799Z,93.84
2018-09-26T11:58:48.116Z,95.23
2018-09-26T12:01:52.417Z,98.23
2018-09-26T12:04:56.768Z,100.00
2018-09-26T12:08:01.111Z,100.00
2018-09-26T12:11:05.401Z,100.00
2018-09-26T12:14:09.739Z,100.00
2018-09-26T12:17:14.088Z,100.00
2018-09-26T12:20:18.475Z,100.00
2018-09-26T12:23:22.787Z,100.00
2018-09-26T12:26:27.126Z,100.00
2018-09-26T12:29:31.429Z,100.00
2018-09-26T12:32:35.887Z,100.00
2018-09-26T12:35:40.177Z,100.00
2018-09-26T12:38:44.443Z,100.00
2018-09-26T12:41:48.697Z,100.00
2018-09-26T12:44:52.993Z,100.00
2018-09-26T12:47:57.306Z,100.00
2018-09-26T12:51:01.592Z,100.00
2018-09-26T12:54:05.978Z,100.00
2018-09-26T12:57:10.234Z,100.00
2018-09-26T13:00:14.612Z,100.00
2018-09-26T13:03:18.895Z,100.00
2018-09-26T13:06:23.218Z,100.00
2018-09-26T13:09:27.529Z,100.00
2018-09-26T13:12:31.947Z,100.00
2018-09-26T13:15:36.336Z,100.00
2018-09-26T13:18:40.830Z,100.00
2018-09-26T13:21:45.233Z,100.00
2018-09-26T13:24:49.536Z,100.00
2018-09-26T13:27:53.876Z,100.00
2018-09-26T13:30:58.251Z,100.00
2018-09-26T13:34:02.615Z,100.00
2018-09-26T13:37:06.925Z,100.00
2018-09-26T13:40:11.369Z,100.00
2018-09-26T13:43:15.695Z,100.00
2018-09-26T13:46:20.018Z,100.00
2018-09-26T13:49:24.496Z,100.00
2018-09-26T13:52:28.830Z,100.00
2018-09-26T13:55:33.143Z,100.00
2018-09-26T13:58:37.494Z,100.00
2018-09-26T14:01:42.182Z,100.00
2018-09-26T14:04:46.476Z,100.00
2018-09-26T14:07:50.884Z,100.00
2018-09-26T14:10:55.196Z,100.00
2018-09-26T14:13:59.619Z,100.00
2018-09-26T14:17:04.057Z,100.00
2018-09-26T14:20:08.394Z,100.00
2018-09-26T14:23:12.864Z,100.00
2018-09-26T14:26:17.146Z,100.00
2018-09-26T14:29:21.489Z,100.00
2018-09-26T14:32:25.825Z,100.00
2018-09-26T14:35:30.065Z,100.00
2018-09-26T14:38:34.351Z,100.00
2018-09-26T14:41:38.726Z,100.00
2018-09-26T14:44:43.050Z,100.00
2018-09-26T14:47:47.358Z,100.00
2018-09-26T14:50:51.654Z,100.00
2018-09-26T14:53:55.980Z,100.00
2018-09-26T14:57:00.301Z,100.00
2018-09-26T15:00:04.821Z,100.00
2018-09-26T15:03:09.177Z,100.00
2018-09-26T15:06:13.506Z,100.00
2018-09-26T15:09:17.922Z,100.00
2018-09-26T15:12:22.340Z,100.00
2018-09-26T15:15:26.751Z,100.00
2018-09-26T15:18:31.089Z,100.00
2018-09-26T15:21:35.478Z,100.00
2018-09-26T15:24:40.981Z,100.00
2018-09-26T15:27:45.314Z,100.00
2018-09-26T15:30:49.721Z,100.00
2018-09-26T15:33:54.237Z,100.00
2018-09-26T15:36:58.515Z,100.00
2018-09-26T15:40:02.951Z,100.00
2018-09-26T15:43:07.407Z,100.00
2018-09-26T15:46:11.841Z,100.00
2018-09-26T15:49:16.194Z,100.00
2018-09-26T15:52:20.595Z,100.00
2018-09-26T15:55:24.899Z,100.00
2018-09-26T15:58:29.318Z,100.00
2018-09-26T16:01:33.650Z,100.00
2018-09-26T16:04:38.033Z,100.00
2018-09-26T16:07:42.357Z,100.00
2018-09-26T16:10:47.317Z,100.00
2018-09-26T16:13:51.616Z,100.00
2018-09-26T16:16:55.960Z,100.00
2018-09-26T16:20:00.264Z,100.00
2018-09-26T16:23:04.585Z,100.00
2018-09-26T16:26:08.976Z,100.00
2018-09-26T16:29:13.307Z,100.00
2018-09-26T16:32:17.758Z,100.00
2018-09-26T16:35:22.106Z,100.00
2018-09-26T16:38:26.400Z,100.00
2018-09-26T16:41:30.672Z,100.00
2018-09-26T16:44:34.948Z,100.00
2018-09-26T16:47:39.240Z,100.00
2018-09-26T16:50:43.707Z,100.00
2018-09-26T16:53:48.033Z,100.00
2018-09-26T16:56:52.475Z,100.00
2018-09-26T16:59:57.767Z,100.00
2018-09-26T17:03:02.929Z,100.00
2018-09-26T17:06:08.045Z,100.00
2018-09-26T17:09:12.392Z,100.00
2018-09-26T17:12:16.725Z,100.00
2018-09-26T17:15:21.029Z,100.00
2018-09-26T17:18:25.381Z,100.00
2018-09-26T17:21:29.825Z,100.00
2018-09-26T17:24:34.216Z,100.00
2018-09-26T17:27:38.641Z,100.00
2018-09-26T17:30:42.946Z,100.00
2018-09-26T17:33:47.234Z,100.00
2018-09-26T17:36:51.594Z,100.00
2018-09-26T17:39:55.928Z,100.00
2018-09-26T17:43:00.325Z,100.00
2018-09-26T17:46:04.714Z,100.00
2018-09-26T17:49:09.107Z,100.00
2018-09-26T17:52:13.386Z,100.00
2018-09-26T17:55:17.737Z,100.00
2018-09-26T17:58:22.099Z,100.00
2018-09-26T18:01:26.664Z,100.00
2018-09-26T18:04:30.976Z,100.00
2018-09-26T18:07:35.342Z,100.00
2018-09-26T18:10:39.762Z,100.00
2018-09-26T18:13:44.174Z,100.00
2018-09-26T18:16:48.563Z,100.00
2018-09-26T18:19:53.033Z,100.00
2018-09-26T18:22:57.489Z,100.00
2018-09-26T18:26:01.927Z,100.00
2018-09-26T18:29:06.286Z,100.00
2018-09-26T18:32:11.227Z,100.00
2018-09-26T18:35:15.584Z,100.00
2018-09-26T18:38:19.987Z,100.00
2018-09-26T18:41:24.422Z,100.00
2018-09-26T18:44:28.804Z,100.00
2018-09-26T18:47:33.299Z,100.00
2018-09-26T18:50:38.427Z,100.00
2018-09-26T18:53:42.922Z,100.00
2018-09-26T18:56:47.315Z,100.00
2018-09-26T18:59:52.404Z,100.00
2018-09-26T19:02:57.914Z,100.00
2018-09-26T19:06:03.078Z,100.00
2018-09-26T19:09:10.645Z,100.00
2018-09-26T19:12:15.430Z,100.00
2018-09-26T19:15:20.593Z,100.00
2018-09-26T19:18:25.801Z,100.00
2018-09-26T19:21:30.716Z,100.00
2018-09-26T19:24:35.379Z,100.00
2018-09-26T19:27:39.845Z,100.00
2018-09-26T19:30:44.220Z,100.00
2018-09-26T19:33:48.672Z,100.00
2018-09-26T19:36:53.078Z,100.00
2018-09-26T19:39:57.493Z,100.00
2018-09-26T19:43:02.466Z,100.00
2018-09-26T19:46:06.977Z,100.00
2018-09-26T19:49:11.372Z,100.00
2018-09-26T19:52:15.983Z,100.00
2018-09-26T19:55:20.315Z,100.00
2018-09-26T19:58:24.765Z,100.00
2018-09-26T20:01:29.084Z,100.00
2018-09-26T20:04:33.489Z,100.00
2018-09-26T20:07:37.848Z,100.00
2018-09-26T20:10:42.203Z,100.00
2018-09-26T20:13:46.529Z,100.00
2018-09-26T20:16:50.857Z,100.00
2018-09-26T20:19:55.208Z,100.00
2018-09-26T20:22:59.689Z,100.00
2018-09-26T20:26:03.972Z,100.00
2018-09-26T20:29:08.391Z,100.00
2018-09-26T20:32:12.765Z,100.00
2018-09-26T20:35:17.293Z,100.00
2018-09-26T20:38:21.572Z,100.00
2018-09-26T20:41:25.933Z,100.00
2018-09-26T20:44:30.313Z,100.00
2018-09-26T20:47:34.802Z,100.00
2018-09-26T20:50:39.105Z,100.00
2018-09-26T20:53:43.384Z,100.00
2018-09-26T20:56:47.875Z,100.00
2018-09-26T20:59:52.156Z,100.00
2018-09-26T21:02:56.473Z,100.00
2018-09-26T21:06:00.833Z,100.00
2018-09-26T21:09:07.375Z,100.00
2018-09-26T21:12:11.718Z,100.00
2018-09-26T21:15:16.300Z,100.00
2018-09-26T21:18:20.685Z,100.00
2018-09-26T21:21:25.084Z,100.00
2018-09-26T21:24:29.510Z,100.00
2018-09-26T21:27:33.821Z,100.00
2018-09-26T21:30:38.105Z,100.00
2018-09-26T21:33:42.440Z,100.00
2018-09-26T21:36:46.816Z,100.00
2018-09-26T21:39:51.111Z,100.00
2018-09-26T21:42:55.393Z,100.00
2018-09-26T21:45:59.757Z,100.00
2018-09-26T21:49:04.012Z,100.00
2018-09-26T21:52:08.501Z,100.00
2018-09-26T21:55:12.825Z,100.00
2018-09-26T21:58:17.135Z,100.00
2018-09-26T22:01:21.462Z,100.00
2018-09-26T22:04:25.788Z,100.00
2018-09-26T22:07:30.064Z,100.00
2018-09-26T22:10:34.469Z,100.00
2018-09-26T22:13:38.746Z,100.00
2018-09-26T22:16:43.033Z,100.00
2018-09-26T22:19:47.422Z,100.00
2018-09-26T22:22:51.690Z,100.00
2018-09-26T22:25:55.929Z,100.00
2018-09-26T22:29:00.257Z,100.00
2018-09-26T22:32:05.109Z,100.00
2018-09-26T22:35:09.448Z,100.00
2018-09-26T22:38:13.793Z,100.00
2018-09-26T22:41:18.112Z,100.00
2018-09-26T22:44:22.367Z,100.00
2018-09-26T22:47:26.688Z,100.00
2018-09-26T22:50:31.039Z,100.00
2018-09-26T22:53:35.317Z,100.00
2018-09-26T22:56:41.065Z,100.00
2018-09-26T22:59:45.432Z,100.00
2018-09-26T23:02:49.666Z,100.00
2018-09-26T23:05:53.951Z,100.00
2018-09-26T23:08:58.274Z,100.00
2018-09-26T23:12:02.965Z,100.00
2018-09-26T23:15:07.256Z,100.00
2018-09-26T23:18:11.530Z,100.00
2018-09-26T23:21:15.868Z,100.00
2018-09-26T23:24:20.190Z,100.00
2018-09-26T23:27:24.517Z,100.00
2018-09-26T23:30:29.621Z,100.00
2018-09-26T23:33:33.973Z,100.00
2018-09-26T23:36:38.310Z,100.00
2018-09-26T23:39:42.613Z,100.00
2018-09-26T23:42:46.943Z,100.00
2018-09-26T23:45:51.199Z,100.00
2018-09-26T23:48:55.477Z,100.00
2018-09-26T23:51:59.804Z,100.00
2018-09-26T23:55:04.141Z,100.00
2018-09-26T23:58:08.440Z,100.00
